Time;durP1;ratioP1;P1;durP2;ratioP2;P2;SDS_P1;SDS_P2;PMS_P1;PMS_P2;Temp;Humidity;BMP_temperature;BMP_pressure;BME280_temperature;BME280_humidity;BME280_pressure;Samples;Min_cycle;Max_cycle;Signal;HPM_P1;HPM_P2
2023/03/15 00:00:47;;;;;;;2.13;0.60;;;;;;;7.03;49.98;96733.69;6266581;28;20731;-37
2023/03/15 00:03:49;;;;;;;1.57;0.70;;;;;;;7.04;50.08;96734.47;6284022;28;20327;-37
2023/03/15 00:06:52;;;;;;;2.13;0.80;;;;;;;6.97;50.11;96724.06;6283043;28;20324;-37
2023/03/15 00:09:54;;;;;;;2.03;0.80;;;;;;;6.89;50.54;96735.06;6265361;28;20251;-37
2023/03/15 00:12:56;;;;;;;2.73;0.93;;;;;;;7.02;50.22;96744.53;6281157;28;20239;-37
2023/03/15 00:16:02;;;;;;;1.13;0.70;;;;;;;6.98;49.99;96744.19;6279081;28;20241;-37
2023/03/15 00:19:04;;;;;;;3.00;0.83;;;;;;;6.93;50.35;96758.16;6284404;28;20815;-37
2023/03/15 00:22:07;;;;;;;2.37;0.87;;;;;;;6.58;50.70;96686.13;6282028;28;20244;-37
2023/03/15 00:25:09;;;;;;;1.90;0.97;;;;;;;6.97;50.13;96758.50;6284220;28;20830;-37
2023/03/15 00:28:11;;;;;;;2.90;0.90;;;;;;;6.89;50.68;96770.28;6282545;28;20739;-37
2023/03/15 00:31:17;;;;;;;2.30;0.70;;;;;;;6.87;50.42;96763.63;6283080;28;20757;-37
2023/03/15 00:34:23;;;;;;;1.20;0.77;;;;;;;6.93;50.21;96754.72;6251642;28;20241;-36
2023/03/15 00:37:26;;;;;;;1.83;0.70;;;;;;;6.88;49.83;96783.75;6264465;28;20251;-37
2023/03/15 00:40:28;;;;;;;2.67;0.80;;;;;;;6.85;50.25;96760.44;6283502;28;20727;-37
2023/03/15 00:43:32;;;;;;;1.90;0.80;;;;;;;6.85;50.23;96760.44;6283104;28;20224;-37
2023/03/15 00:46:34;;;;;;;1.07;0.70;;;;;;;6.77;50.59;96782.78;6264513;28;20242;-37
2023/03/15 00:49:37;;;;;;;2.33;0.87;;;;;;;6.76;50.93;96785.69;6263773;28;20239;-37
2023/03/15 00:52:41;;;;;;;1.27;0.53;;;;;;;6.70;51.03;96779.50;6280756;28;20846;-38
2023/03/15 00:55:43;;;;;;;1.77;0.83;;;;;;;6.73;51.01;96800.97;6269698;28;20260;-37
2023/03/15 00:58:46;;;;;;;3.40;1.30;;;;;;;6.71;50.87;96789.03;6248674;28;20471;-37
2023/03/15 01:01:48;;;;;;;1.20;0.97;;;;;;;6.70;51.08;96811.25;6286332;28;20239;-37
2023/03/15 01:04:50;;;;;;;1.63;0.67;;;;;;;6.74;51.25;96807.06;6287251;28;20247;-37
2023/03/15 01:07:52;;;;;;;4.47;0.70;;;;;;;6.73;51.37;96816.88;6284942;28;20236;-37
2023/03/15 01:10:54;;;;;;;1.87;1.00;;;;;;;6.51;51.42;96786.06;6287324;28;20520;-37
2023/03/15 01:13:59;;;;;;;3.73;0.83;;;;;;;6.67;51.39;96820.47;6272108;28;20260;-37
2023/03/15 01:17:01;;;;;;;2.13;0.80;;;;;;;6.67;51.78;96812.53;6284203;28;20246;-37
2023/03/15 01:20:04;;;;;;;4.60;1.07;;;;;;;6.61;51.74;96813.50;6262672;28;20244;-37
2023/03/15 01:23:06;;;;;;;3.70;0.77;;;;;;;6.62;51.79;96819.59;6280610;28;20236;-37
2023/03/15 01:26:11;;;;;;;1.47;0.90;;;;;;;6.68;51.71;96816.78;6281649;28;20238;-36
2023/03/15 01:29:13;;;;;;;2.87;0.80;;;;;;;6.67;51.83;96811.72;6281280;28;20816;-37
2023/03/15 01:32:16;;;;;;;1.10;0.70;;;;;;;6.60;52.14;96819.81;6266745;28;20239;-37
2023/03/15 01:35:18;;;;;;;0.87;0.60;;;;;;;6.60;52.15;96832.22;6266267;28;20236;-36
2023/03/15 01:38:20;;;;;;;3.27;0.93;;;;;;;6.71;51.87;96840.13;6257858;28;20783;-36
2023/03/15 01:41:24;;;;;;;1.47;0.80;;;;;;;6.34;51.70;96781.50;6282228;28;20240;-37
2023/03/15 01:44:51;;;;;;;1.03;0.80;;;;;;;6.57;51.77;96838.00;6269721;28;20254;-36
2023/03/15 01:47:53;;;;;;;2.20;0.70;;;;;;;6.62;51.93;96843.41;6278929;28;20350;-37
2023/03/15 01:50:56;;;;;;;1.63;0.80;;;;;;;6.50;51.70;96821.47;6268344;28;20724;-37
2023/03/15 01:54:05;;;;;;;2.80;0.93;;;;;;;6.66;51.68;96866.50;6288459;28;20236;-37
2023/03/15 01:57:15;;;;;;;1.60;0.73;;;;;;;6.65;51.79;96851.69;6275653;28;20235;-36
2023/03/15 02:00:19;;;;;;;1.23;0.70;;;;;;;6.64;51.97;96844.75;6272267;28;20565;-38
2023/03/15 02:03:38;;;;;;;0.90;0.60;;;;;;;6.76;51.75;96871.19;6262818;28;20712;-37
2023/03/15 02:06:45;;;;;;;2.87;0.87;;;;;;;6.71;51.89;96873.75;6272316;28;20249;-37
2023/03/15 02:10:00;;;;;;;1.67;0.60;;;;;;;6.77;52.19;96882.56;6290161;28;20235;-37
2023/03/15 02:13:05;;;;;;;1.77;0.90;;;;;;;6.71;53.00;96889.63;6270962;28;20637;-37
2023/03/15 02:16:08;;;;;;;1.13;0.70;;;;;;;6.65;54.63;96891.38;6270356;28;20237;-37
2023/03/15 02:19:52;;;;;;;1.90;0.60;;;;;;;6.33;55.51;96874.31;6271111;28;20671;-37
2023/03/15 02:23:02;;;;;;;0.50;0.50;;;;;;;6.39;56.61;96894.53;6270234;28;20331;-37
2023/03/15 02:26:33;;;;;;;0.30;0.30;;;;;;;6.25;57.68;96894.00;6290719;28;20238;-37
2023/03/15 02:29:35;;;;;;;0.87;0.30;;;;;;;6.31;57.50;96890.44;6279363;28;20328;-38
2023/03/15 02:32:38;;;;;;;0.40;0.40;;;;;;;6.22;58.16;96889.19;6294346;28;20232;-37
2023/03/15 02:35:40;;;;;;;0.50;0.50;;;;;;;6.24;58.42;96886.31;6275378;28;20224;-37
2023/03/15 02:38:42;;;;;;;0.73;0.50;;;;;;;6.22;58.56;96886.53;6295804;28;20310;-37
2023/03/15 02:41:51;;;;;;;0.53;0.40;;;;;;;6.22;58.71;96886.53;6291758;28;20228;-36
2023/03/15 02:44:55;;;;;;;0.50;0.50;;;;;;;6.03;59.59;96899.09;6289598;28;20222;-36
2023/03/15 02:47:59;;;;;;;1.00;0.60;;;;;;;5.81;60.18;96879.53;6286670;28;20232;-37
2023/03/15 02:51:01;;;;;;;0.73;0.73;;;;;;;5.74;59.77;96871.75;6289046;28;20305;-36
2023/03/15 02:54:03;;;;;;;0.60;0.60;;;;;;;5.85;59.93;96894.72;6270570;28;20560;-36
2023/03/15 02:57:06;;;;;;;0.60;0.60;;;;;;;6.00;59.51;96910.13;6267741;28;20246;-36
2023/03/15 03:00:15;;;;;;;1.23;0.80;;;;;;;6.00;59.27;96907.47;6264939;28;20585;-37
2023/03/15 03:03:18;;;;;;;1.53;0.77;;;;;;;5.87;59.47;96921.72;6272014;28;20245;-36
2023/03/15 03:06:20;;;;;;;1.80;0.80;;;;;;;5.89;59.59;96916.19;6285870;28;20311;-36
2023/03/15 03:09:23;;;;;;;0.60;0.60;;;;;;;5.64;59.53;96885.53;6284616;28;20300;-36
2023/03/15 03:12:26;;;;;;;1.00;1.00;;;;;;;5.85;59.45;96918.50;6269370;28;20237;-36
2023/03/15 03:15:28;;;;;;;1.13;1.10;;;;;;;5.70;60.04;96923.44;6267687;28;20225;-37
2023/03/15 03:18:34;;;;;;;1.10;1.00;;;;;;;5.54;59.73;96906.44;6249294;28;20226;-36
2023/03/15 03:21:38;;;;;;;1.07;1.00;;;;;;;5.75;60.00;96922.75;6266846;28;20331;-37
2023/03/15 03:24:44;;;;;;;1.87;1.40;;;;;;;5.66;59.72;96917.81;6265487;28;20485;-37
2023/03/15 03:27:49;;;;;;;1.37;1.20;;;;;;;5.57;59.32;96932.41;6266466;28;20243;-37
2023/03/15 03:30:53;;;;;;;1.30;1.20;;;;;;;5.50;60.23;96938.81;6282845;28;20263;-37
2023/03/15 03:33:55;;;;;;;1.33;1.20;;;;;;;5.51;60.05;96932.50;6267293;28;20234;-36
2023/03/15 03:36:59;;;;;;;1.50;1.40;;;;;;;5.51;60.18;96937.78;6264045;28;20855;-37
2023/03/15 03:40:20;;;;;;;1.40;1.30;;;;;;;5.34;60.39;96938.44;6265772;28;20686;-37
2023/03/15 03:43:22;;;;;;;2.27;1.20;;;;;;;4.73;60.10;96838.41;6282365;28;20241;-37
2023/03/15 03:46:27;;;;;;;1.70;1.40;;;;;;;5.20;60.83;96950.22;6261611;28;20536;-36
2023/03/15 03:49:29;;;;;;;1.90;1.53;;;;;;;5.23;60.69;96944.50;6283005;28;20235;-36
2023/03/15 03:52:32;;;;;;;1.30;1.20;;;;;;;5.02;61.05;96939.72;6269055;28;20235;-37
2023/03/15 03:55:41;;;;;;;2.97;1.60;;;;;;;5.15;61.10;96950.09;6267750;28;20595;-36
2023/03/15 03:58:44;;;;;;;1.70;1.60;;;;;;;5.05;61.41;96955.13;6284128;28;20249;-36
2023/03/15 04:01:57;;;;;;;1.40;1.30;;;;;;;4.80;61.65;96926.22;6265838;28;20385;-36
2023/03/15 04:04:59;;;;;;;2.03;1.70;;;;;;;5.05;61.64;96958.56;6267959;28;21166;-36
2023/03/15 04:08:02;;;;;;;1.70;1.60;;;;;;;4.97;61.97;96956.22;6268448;28;20253;-36
2023/03/15 04:11:09;;;;;;;2.70;1.67;;;;;;;5.05;61.94;96963.03;6282366;28;20547;-36
2023/03/15 04:14:14;;;;;;;1.97;1.77;;;;;;;4.96;61.74;96949.34;6282787;28;20233;-37
2023/03/15 04:17:18;;;;;;;2.17;1.93;;;;;;;4.94;62.15;96969.88;6268063;28;20231;-37
2023/03/15 04:20:22;;;;;;;2.63;1.70;;;;;;;5.09;61.83;96977.41;6265289;28;20752;-37
2023/03/15 04:23:24;;;;;;;1.97;1.73;;;;;;;5.10;61.77;96981.66;6264135;28;20235;-37
2023/03/15 04:26:56;;;;;;;3.63;1.53;;;;;;;5.09;61.63;96987.97;6265125;28;20237;-37
2023/03/15 04:30:15;;;;;;;2.10;2.00;;;;;;;5.08;62.05;97002.19;6262686;28;20662;-37
2023/03/15 04:33:28;;;;;;;2.17;1.97;;;;;;;4.95;62.27;97007.63;6280905;28;20238;-36
2023/03/15 04:36:41;;;;;;;1.67;1.57;;;;;;;4.36;62.13;96922.91;6282230;28;20256;-36
2023/03/15 04:40:07;;;;;;;2.40;2.17;;;;;;;4.76;62.50;97015.56;6280436;28;20757;-36
2023/03/15 04:43:34;;;;;;;3.53;2.07;;;;;;;4.61;63.14;97021.22;6281518;28;20239;-37
2023/03/15 04:46:54;;;;;;;2.40;2.20;;;;;;;4.36;63.07;96994.91;6269581;28;20234;-35
2023/03/15 04:50:04;;;;;;;3.83;2.13;;;;;;;4.30;61.13;97008.16;6262613;28;20320;-37
2023/03/15 04:53:29;;;;;;;3.43;1.80;;;;;;;4.44;60.52;97045.75;6256527;28;20362;-37
2023/03/15 04:56:37;;;;;;;7.30;2.23;;;;;;;4.01;59.24;97013.09;6283316;28;20234;-38
2023/03/15 05:00:08;;;;;;;3.53;1.70;;;;;;;4.03;59.67;97024.19;6255061;28;20238;-36
2023/03/15 05:03:46;;;;;;;4.80;1.50;;;;;;;4.08;58.84;97031.47;6169981;28;20249;-36
2023/03/15 05:07:23;;;;;;;3.60;1.80;;;;;;;4.27;58.18;97070.03;6214567;28;20298;-36
2023/03/15 05:10:39;;;;;;;6.60;1.97;;;;;;;4.25;57.75;97072.09;6251643;28;20231;-37
2023/03/15 05:14:12;;;;;;;4.23;1.60;;;;;;;4.20;56.06;97074.56;6263296;28;20757;-37
2023/03/15 05:17:33;;;;;;;5.20;1.67;;;;;;;3.86;54.49;97046.84;6284061;28;20594;-36
2023/03/15 05:20:49;;;;;;;5.10;1.50;;;;;;;3.91;53.36;97085.75;6262967;28;20729;-36
2023/03/15 05:24:02;;;;;;;2.47;1.10;;;;;;;3.74;51.62;97072.25;6258386;28;20231;-36
2023/03/15 05:27:19;;;;;;;4.83;1.50;;;;;;;3.88;51.34;97094.88;6263489;28;20214;-36
2023/03/15 05:30:33;;;;;;;4.37;1.30;;;;;;;3.91;51.53;97081.28;6281669;28;20238;-36
2023/03/15 05:33:56;;;;;;;4.03;1.07;;;;;;;3.86;50.58;97081.91;6233720;28;20238;-37
2023/03/15 05:37:16;;;;;;;4.97;1.53;;;;;;;3.80;50.74;97084.59;6283845;28;20780;-37
2023/03/15 05:40:37;;;;;;;7.33;1.10;;;;;;;3.77;50.48;97091.09;6280719;28;20306;-36
2023/03/15 05:43:57;;;;;;;5.10;1.20;;;;;;;3.76;49.64;97088.69;6281181;28;20724;-37
2023/03/15 05:47:13;;;;;;;5.80;1.40;;;;;;;3.74;49.81;97088.06;6262625;28;20224;-36
2023/03/15 05:50:33;;;;;;;2.20;0.93;;;;;;;3.69;49.73;97096.59;6281547;28;20320;-36
2023/03/15 05:53:59;;;;;;;6.00;1.10;;;;;;;3.69;49.05;97093.16;6271700;28;20227;-37
2023/03/15 05:57:12;;;;;;;6.27;1.30;;;;;;;3.60;49.05;97108.44;6265213;28;20240;-36
2023/03/15 06:00:29;;;;;;;2.50;1.23;;;;;;;3.55;49.00;97116.16;6261469;28;20349;-36
2023/03/15 06:03:38;;;;;;;4.23;1.53;;;;;;;3.56;48.76;97123.84;6284475;28;20740;-36
2023/03/15 06:06:50;;;;;;;6.03;1.47;;;;;;;3.58;48.64;97121.00;6261848;28;20574;-36
2023/03/15 06:09:54;;;;;;;2.13;0.83;;;;;;;3.52;48.70;97122.66;6263489;28;20242;-36
2023/03/15 06:12:56;;;;;;;3.50;0.80;;;;;;;3.51;47.67;97131.56;6281518;28;20236;-37
2023/03/15 06:15:58;;;;;;;7.43;1.30;;;;;;;3.52;47.88;97132.38;6274418;28;20229;-37
2023/03/15 06:19:02;;;;;;;8.40;1.13;;;;;;;3.56;47.81;97152.00;6262572;28;20236;-36
2023/03/15 06:22:05;;;;;;;3.57;1.00;;;;;;;3.38;47.17;97104.50;6261481;28;20769;-36
2023/03/15 06:25:25;;;;;;;4.60;1.10;;;;;;;3.67;46.90;97153.97;6286455;28;20711;-36
2023/03/15 06:28:27;;;;;;;4.23;1.20;;;;;;;3.69;46.95;97136.13;6281661;28;20240;-36
2023/03/15 06:31:32;;;;;;;1.63;0.90;;;;;;;3.96;46.28;97154.41;6266703;28;20244;-37
2023/03/15 06:34:37;;;;;;;4.87;1.33;;;;;;;4.09;45.25;97151.72;6271193;28;20265;-36
2023/03/15 06:37:40;;;;;;;4.33;1.20;;;;;;;4.25;44.66;97169.63;6270753;28;20261;-37
2023/03/15 06:40:43;;;;;;;4.90;1.03;;;;;;;4.38;44.37;97164.28;6267896;28;20351;-37
2023/03/15 06:43:47;;;;;;;2.07;0.93;;;;;;;4.42;44.29;97162.00;6285861;28;20246;-37
2023/03/15 06:46:49;;;;;;;4.97;1.30;;;;;;;4.31;44.15;97157.41;6265057;28;20363;-37
2023/03/15 06:49:52;;;;;;;5.10;0.90;;;;;;;4.45;43.71;97166.03;6264339;28;20807;-37
2023/03/15 06:52:57;;;;;;;4.37;0.77;;;;;;;4.55;43.19;97211.19;6265765;28;20223;-37
2023/03/15 06:56:01;;;;;;;4.10;0.77;;;;;;;4.54;43.04;97209.59;6288857;28;20240;-37
2023/03/15 06:59:03;;;;;;;2.53;0.93;;;;;;;4.46;43.09;97208.00;6266631;28;20232;-36
2023/03/15 07:02:06;;;;;;;3.47;1.00;;;;;;;4.52;42.55;97204.50;6287431;28;20248;-36
2023/03/15 07:05:09;;;;;;;1.97;0.63;;;;;;;4.61;42.68;97221.69;6284012;28;20598;-37
2023/03/15 07:08:12;;;;;;;4.70;1.03;;;;;;;4.73;42.71;97221.81;6280857;28;20303;-37
2023/03/15 07:11:14;;;;;;;2.67;1.13;;;;;;;4.84;42.02;97241.41;6283429;28;20595;-38
2023/03/15 07:14:16;;;;;;;2.40;1.20;;;;;;;4.78;41.48;97235.16;6279711;28;20226;-36
2023/03/15 07:17:18;;;;;;;4.80;0.83;;;;;;;4.79;40.93;97241.25;6285949;28;20764;-37
2023/03/15 07:20:20;;;;;;;5.07;1.00;;;;;;;4.70;41.48;97229.34;6280307;28;20313;-37
2023/03/15 07:23:22;;;;;;;3.70;0.93;;;;;;;4.93;41.87;97253.31;6283630;28;20258;-38
2023/03/15 07:26:24;;;;;;;2.40;1.00;;;;;;;5.06;40.78;97263.75;6283937;28;20320;-38
2023/03/15 07:29:26;;;;;;;5.77;1.20;;;;;;;5.10;40.82;97266.75;6282077;28;20325;-36
2023/03/15 07:32:29;;;;;;;4.00;1.10;;;;;;;5.09;41.02;97273.88;6283677;28;20785;-43
2023/03/15 07:35:31;;;;;;;2.60;1.00;;;;;;;5.05;41.17;97277.16;6287139;28;20225;-38
2023/03/15 07:38:34;;;;;;;2.57;0.93;;;;;;;5.04;41.49;97289.56;6280216;28;20263;-38
2023/03/15 07:41:37;;;;;;;2.20;0.93;;;;;;;4.98;41.78;97287.78;6282929;28;20226;-36
2023/03/15 07:44:53;;;;;;;5.03;1.23;;;;;;;5.04;41.55;97289.56;6263983;28;20597;-36
2023/03/15 07:47:55;;;;;;;2.50;1.00;;;;;;;4.60;41.31;97206.09;6283959;28;20658;-36
2023/03/15 07:50:58;;;;;;;2.20;0.80;;;;;;;5.22;41.48;97291.44;6281816;28;20234;-36
2023/03/15 07:54:00;;;;;;;5.50;1.07;;;;;;;5.52;41.18;97296.03;6290414;28;20660;-35
2023/03/15 07:57:02;;;;;;;4.07;0.90;;;;;;;5.78;40.49;97302.88;6281743;28;20259;-36
2023/03/15 08:00:05;;;;;;;4.80;1.30;;;;;;;6.17;39.70;97326.25;6281749;28;20214;-35
2023/03/15 08:03:12;;;;;;;9.67;1.53;;;;;;;6.59;38.85;97302.47;6279537;28;20242;-35
2023/03/15 08:06:15;;;;;;;3.33;0.90;;;;;;;7.01;37.71;97307.78;6278836;28;20677;-35
2023/03/15 08:09:17;;;;;;;3.23;1.00;;;;;;;7.21;37.36;97313.56;6284860;28;20306;-37
2023/03/15 08:12:19;;;;;;;3.23;0.93;;;;;;;7.04;37.78;97304.66;6280180;28;20715;-35
2023/03/15 08:15:21;;;;;;;4.77;1.30;;;;;;;7.01;37.71;97288.44;6280515;28;22881;-35
2023/03/15 08:18:23;;;;;;;2.50;0.90;;;;;;;7.07;38.27;97336.00;6282593;28;20291;-36
2023/03/15 08:21:27;;;;;;;5.00;0.93;;;;;;;7.44;36.82;97310.13;6282700;28;20234;-36
2023/03/15 08:24:29;;;;;;;8.33;1.57;;;;;;;8.70;35.52;97344.81;6280923;28;20235;-36
2023/03/15 08:27:31;;;;;;;4.63;1.00;;;;;;;9.37;34.28;97348.59;6285251;28;20237;-37
2023/03/15 08:30:33;;;;;;;2.20;0.80;;;;;;;9.65;32.63;97340.50;6281945;28;20326;-36
2023/03/15 08:33:36;;;;;;;3.57;1.17;;;;;;;10.51;31.36;97362.16;6283741;28;20225;-36
2023/03/15 08:36:38;;;;;;;5.40;1.50;;;;;;;11.41;30.09;97346.50;6278449;28;20313;-36
2023/03/15 08:39:40;;;;;;;6.13;1.20;;;;;;;11.77;29.83;97352.09;6282080;28;20589;-37
2023/03/15 08:42:42;;;;;;;5.27;1.30;;;;;;;11.66;29.21;97366.44;6282488;28;20241;-37
2023/03/15 08:45:44;;;;;;;4.87;1.40;;;;;;;11.52;29.45;97366.84;6285269;28;20231;-36
2023/03/15 08:49:01;;;;;;;4.40;1.37;;;;;;;11.41;29.14;97370.50;6285505;28;20669;-36
2023/03/15 08:52:04;;;;;;;4.67;1.47;;;;;;;11.49;29.50;97358.56;6263412;28;20240;-37
2023/03/15 08:55:07;;;;;;;4.67;1.67;;;;;;;10.75;30.15;97372.56;6288241;28;20239;-37
2023/03/15 08:58:11;;;;;;;5.30;1.37;;;;;;;9.93;31.85;97379.50;6282914;28;20235;-36
2023/03/15 09:01:14;;;;;;;5.70;1.37;;;;;;;9.18;33.44;97385.25;6279749;28;20246;-36
2023/03/15 09:04:16;;;;;;;4.87;1.73;;;;;;;9.04;34.34;97368.78;6280775;28;20758;-36
2023/03/15 09:07:20;;;;;;;4.33;1.33;;;;;;;9.09;34.71;97384.81;6274000;28;20574;-36
2023/03/15 09:10:22;;;;;;;6.03;1.87;;;;;;;8.93;35.95;97398.88;6276555;28;20253;-36
2023/03/15 09:13:25;;;;;;;6.57;1.67;;;;;;;9.34;34.73;97392.41;6281147;28;20238;-36
2023/03/15 09:16:27;;;;;;;2.90;1.47;;;;;;;9.10;34.08;97418.31;6262255;28;20246;-37
2023/03/15 09:19:31;;;;;;;6.30;1.40;;;;;;;8.88;35.39;97404.91;6281510;28;20385;-37
2023/03/15 09:22:33;;;;;;;5.00;1.70;;;;;;;9.14;35.30;97419.44;6259405;28;20327;-36
2023/03/15 09:25:40;;;;;;;5.07;1.70;;;;;;;8.98;35.08;97436.16;6282537;28;20238;-37
2023/03/15 09:28:42;;;;;;;3.97;1.40;;;;;;;8.63;34.44;97436.28;6280460;28;20234;-36
2023/03/15 09:31:44;;;;;;;3.37;1.60;;;;;;;8.27;35.79;97441.63;6263463;28;20666;-36
2023/03/15 09:34:46;;;;;;;4.70;1.50;;;;;;;8.33;35.51;97439.09;6283473;28;20591;-36
2023/03/15 09:37:49;;;;;;;4.27;1.77;;;;;;;8.07;36.10;97427.09;6282176;28;20332;-36
2023/03/15 09:40:59;;;;;;;5.77;1.83;;;;;;;8.00;36.31;97445.78;6282702;28;20257;-37
2023/03/15 09:44:31;;;;;;;4.60;1.63;;;;;;;7.71;36.92;97455.47;6251710;28;20254;-37
2023/03/15 09:48:04;;;;;;;3.83;1.57;;;;;;;8.11;37.17;97452.13;6278360;28;20648;-36
2023/03/15 09:51:35;;;;;;;3.17;1.33;;;;;;;8.14;36.15;97446.38;6267593;28;20705;-37
2023/03/15 09:55:13;;;;;;;4.97;1.70;;;;;;;7.89;36.36;97417.44;6254389;28;20359;-37
2023/03/15 09:58:31;;;;;;;4.50;1.23;;;;;;;8.77;35.50;97477.47;6280196;28;20229;-38
2023/03/15 10:01:39;;;;;;;4.83;1.43;;;;;;;8.89;34.92;97456.19;6281829;28;20238;-38
2023/03/15 10:04:44;;;;;;;5.13;1.60;;;;;;;8.67;35.66;97448.03;6285308;28;20269;-37
2023/03/15 10:07:47;;;;;;;2.53;1.13;;;;;;;8.76;35.59;97459.91;6282726;28;20248;-36
2023/03/15 10:11:00;;;;;;;5.63;1.60;;;;;;;8.69;35.15;97444.13;6292266;28;20323;-36
2023/03/15 10:14:21;;;;;;;5.13;1.40;;;;;;;9.03;34.63;97468.16;6285903;28;20740;-37
2023/03/15 10:17:28;;;;;;;5.50;1.90;;;;;;;8.96;34.45;97462.94;6287703;28;20631;-37
2023/03/15 10:20:33;;;;;;;3.23;1.23;;;;;;;8.97;33.88;97458.47;6282223;28;20244;-37
2023/03/15 10:23:46;;;;;;;3.97;1.43;;;;;;;8.63;35.15;97463.66;6285963;28;20266;-37
2023/03/15 10:26:50;;;;;;;6.17;1.87;;;;;;;8.79;34.73;97464.75;6271356;28;20597;-37
2023/03/15 10:29:56;;;;;;;5.37;1.40;;;;;;;9.45;33.79;97450.03;6268128;28;20712;-38
2023/03/15 10:33:04;;;;;;;18.20;2.20;;;;;;;9.73;34.13;97472.31;6287835;28;20237;-38
2023/03/15 10:36:13;;;;;;;4.97;1.30;;;;;;;9.70;33.06;97449.63;6257488;28;20328;-37
2023/03/15 10:39:16;;;;;;;21.30;2.50;;;;;;;9.27;34.02;97461.69;6285013;28;20219;-37
2023/03/15 10:42:26;;;;;;;5.87;1.53;;;;;;;9.47;33.51;97468.41;6285177;28;20977;-37
2023/03/15 10:45:28;;;;;;;6.40;1.60;;;;;;;9.66;32.47;97463.69;6290216;28;20242;-37
2023/03/15 10:48:33;;;;;;;6.37;1.50;;;;;;;9.93;32.02;97448.69;6282274;28;20794;-38
2023/03/15 10:51:45;;;;;;;2.77;1.30;;;;;;;9.78;32.23;97433.28;6285976;28;20782;-37
2023/03/15 10:54:47;;;;;;;4.53;1.47;;;;;;;10.24;31.03;97441.16;6282945;28;20237;-37
2023/03/15 10:58:01;;;;;;;4.40;1.33;;;;;;;9.73;31.59;97451.81;6283704;28;20816;-37
2023/03/15 11:01:06;;;;;;;4.03;1.73;;;;;;;8.98;35.44;97439.63;6265771;28;20223;-37
2023/03/15 11:04:22;;;;;;;2.77;1.67;;;;;;;7.70;40.41;97414.88;6282441;28;21077;-36
2023/03/15 11:07:25;;;;;;;5.75;1.83;;;;;;;8.13;41.33;97468.66;6283900;28;21232;-37
2023/03/15 11:10:32;;;;;;;4.77;1.77;;;;;;;7.13;44.06;97464.06;6284006;28;20961;-36
2023/03/15 11:13:36;;;;;;;4.17;1.53;;;;;;;7.27;44.65;97475.28;6283217;28;20238;-37
2023/03/15 11:16:38;;;;;;;3.07;1.73;;;;;;;7.06;45.32;97474.75;6287142;28;20783;-36
2023/03/15 11:19:54;;;;;;;6.23;2.00;;;;;;;7.24;44.58;97480.03;6286921;28;20243;-36
2023/03/15 11:22:58;;;;;;;4.57;2.00;;;;;;;7.26;44.40;97441.88;6284171;28;20239;-37
2023/03/15 11:26:01;;;;;;;4.07;1.80;;;;;;;7.23;44.58;97443.13;6287062;28;20241;-37
2023/03/15 11:29:17;;;;;;;3.90;1.63;;;;;;;6.70;44.79;97373.19;6281772;28;20653;-37
2023/03/15 11:32:22;;;;;;;3.17;1.87;;;;;;;7.30;45.13;97445.72;6281494;28;20237;-37
2023/03/15 11:35:48;;;;;;;7.30;2.10;;;;;;;7.44;45.18;97478.94;6283968;28;20228;-37
2023/03/15 11:38:53;;;;;;;4.63;1.90;;;;;;;7.28;45.22;97474.25;6269762;28;20222;-36
2023/03/15 11:42:01;;;;;;;3.00;1.80;;;;;;;7.40;44.84;97485.72;6281897;28;20248;-36
2023/03/15 11:45:31;;;;;;;5.90;2.20;;;;;;;7.22;43.97;97430.94;6285725;28;20245;-36
2023/03/15 11:49:16;;;;;;;5.63;1.90;;;;;;;7.65;42.86;97465.13;6279653;28;20227;-36
2023/03/15 11:52:22;;;;;;;4.70;1.47;;;;;;;7.85;42.70;97472.78;6283804;28;20885;-37
2023/03/15 11:55:26;;;;;;;3.53;1.43;;;;;;;7.86;41.98;97474.38;6284834;28;20230;-37
2023/03/15 11:58:41;;;;;;;4.60;1.30;;;;;;;8.22;40.44;97470.69;6283551;28;20636;-37
2023/03/15 12:02:09;;;;;;;5.20;1.83;;;;;;;8.03;37.91;97458.59;6283001;28;20233;-34
2023/03/15 12:05:46;;;;;;;4.23;1.47;;;;;;;7.87;38.71;97467.22;6254242;28;20244;-36
2023/03/15 12:08:51;;;;;;;3.40;1.50;;;;;;;7.32;37.72;97451.56;6284194;28;20725;-36
2023/03/15 12:12:00;;;;;;;3.23;1.43;;;;;;;7.37;39.20;97452.50;6268934;28;20235;-36
2023/03/15 12:15:05;;;;;;;3.47;1.90;;;;;;;7.61;42.44;97442.75;6281202;28;20225;-36
2023/03/15 12:18:14;;;;;;;4.97;2.17;;;;;;;7.72;43.84;97457.06;6282396;28;20742;-36
2023/03/15 12:21:20;;;;;;;6.23;2.10;;;;;;;7.81;43.08;97453.03;6282009;28;20305;-36
2023/03/15 12:24:29;;;;;;;4.40;2.00;;;;;;;8.12;42.23;97443.13;6282733;28;20234;-36
2023/03/15 12:27:36;;;;;;;3.80;1.87;;;;;;;8.11;41.66;97457.44;6283227;28;20634;-36
2023/03/15 12:30:44;;;;;;;2.70;1.27;;;;;;;7.88;43.38;97435.19;6280654;28;20313;-36
2023/03/15 12:33:50;;;;;;;4.67;1.70;;;;;;;8.05;43.17;97456.53;6282113;28;20234;-36
2023/03/15 12:36:57;;;;;;;5.50;2.50;;;;;;;7.98;41.43;97429.31;6262372;28;20572;-36
2023/03/15 12:40:14;;;;;;;5.47;1.93;;;;;;;8.20;41.24;97453.41;6279612;28;20233;-37
2023/03/15 12:43:35;;;;;;;4.50;2.00;;;;;;;7.86;41.75;97455.00;6281399;28;20753;-36
2023/03/15 12:46:40;;;;;;;6.47;1.90;;;;;;;7.81;42.41;97455.69;6282042;28;20740;-36
2023/03/15 12:49:44;;;;;;;3.53;1.90;;;;;;;7.91;42.58;97453.28;6277435;28;20741;-37
2023/03/15 12:52:52;;;;;;;3.27;1.93;;;;;;;8.32;41.44;97464.78;6286522;28;20291;-37
2023/03/15 12:55:55;;;;;;;4.97;1.70;;;;;;;8.44;39.28;97444.41;6283242;28;20323;-37
2023/03/15 12:59:20;;;;;;;2.80;1.70;;;;;;;8.32;40.55;97448.06;6284540;28;20245;-37
2023/03/15 13:02:31;;;;;;;4.10;1.87;;;;;;;8.15;39.62;97458.59;6266461;28;20224;-37
2023/03/15 13:06:13;;;;;;;3.90;1.40;;;;;;;7.84;41.13;97452.59;6282754;28;20241;-37
2023/03/15 13:09:48;;;;;;;2.77;1.97;;;;;;;7.68;42.04;97461.19;6265352;28;20316;-38
2023/03/15 13:12:59;;;;;;;3.20;1.73;;;;;;;7.92;41.62;97412.44;6281862;28;20335;-37
2023/03/15 13:16:15;;;;;;;3.73;1.73;;;;;;;8.09;40.63;97454.22;6281987;28;20269;-37
2023/03/15 13:19:26;;;;;;;5.53;1.60;;;;;;;7.83;40.46;97421.81;6280932;28;20228;-37
2023/03/15 13:22:45;;;;;;;2.77;1.60;;;;;;;7.73;40.50;97417.09;6280947;28;20610;-37
2023/03/15 13:26:14;;;;;;;4.50;1.90;;;;;;;7.42;40.69;97454.47;6279770;28;20582;-37
2023/03/15 13:29:25;;;;;;;2.47;1.60;;;;;;;7.50;40.42;97460.25;6280146;28;20222;-37
2023/03/15 13:32:27;;;;;;;5.93;1.98;;;;;;;7.69;40.22;97450.38;6262947;28;20451;-37
2023/03/15 13:35:30;;;;;;;4.03;1.53;;;;;;;7.44;41.33;97452.44;6281140;28;20224;-37
2023/03/15 13:38:44;;;;;;;5.50;1.43;;;;;;;7.72;41.13;97449.91;6256919;28;20717;-37
2023/03/15 13:41:46;;;;;;;5.53;2.00;;;;;;;7.57;42.32;97451.41;6253033;28;20249;-37
2023/03/15 13:45:14;;;;;;;4.60;2.13;;;;;;;7.67;42.26;97457.75;6255374;28;20685;-37
2023/03/15 13:48:17;;;;;;;4.20;1.77;;;;;;;7.65;42.07;97469.63;6247632;28;20277;-37
2023/03/15 13:51:36;;;;;;;5.80;1.70;;;;;;;7.90;40.90;97474.75;6257087;28;20788;-37
2023/03/15 13:54:40;;;;;;;4.67;1.70;;;;;;;7.45;41.47;97424.88;6259715;28;20238;-37
2023/03/15 13:57:42;;;;;;;2.53;1.17;;;;;;;7.13;42.71;97446.31;6258303;28;20236;-37
2023/03/15 14:00:46;;;;;;;4.57;1.60;;;;;;;7.35;43.07;97453.78;6255917;28;20664;-36
2023/03/15 14:03:55;;;;;;;4.17;1.60;;;;;;;7.62;42.58;97456.81;6256870;28;20230;-36
2023/03/15 14:07:27;;;;;;;4.10;1.20;;;;;;;7.95;42.09;97456.28;6259595;28;20288;-37
2023/03/15 14:10:32;;;;;;;3.63;1.57;;;;;;;7.83;42.48;97463.41;6258679;28;20323;-37
2023/03/15 14:13:47;;;;;;;3.87;1.67;;;;;;;7.91;42.27;97465.72;6258624;28;20228;-37
2023/03/15 14:16:50;;;;;;;4.53;1.27;;;;;;;7.93;41.64;97459.19;6258191;28;20423;-37
2023/03/15 14:20:14;;;;;;;3.90;1.37;;;;;;;7.73;41.68;97451.56;6255874;28;20326;-36
2023/03/15 14:23:20;;;;;;;3.87;1.97;;;;;;;7.71;41.83;97463.41;6253293;28;20278;-37
2023/03/15 14:26:27;;;;;;;6.43;1.57;;;;;;;7.49;41.06;97434.81;6254585;28;20264;-37
2023/03/15 14:29:46;;;;;;;4.30;1.43;;;;;;;7.40;41.84;97470.63;6251403;28;20237;-37
2023/03/15 14:32:57;;;;;;;5.63;1.73;;;;;;;7.45;41.72;97470.75;6256406;28;20237;-37
2023/03/15 14:36:02;;;;;;;2.77;1.57;;;;;;;7.39;41.49;97476.97;6255154;28;20248;-36
2023/03/15 14:39:22;;;;;;;2.10;1.37;;;;;;;7.41;41.40;97466.94;6279005;28;20522;-36
2023/03/15 14:42:25;;;;;;;3.57;1.60;;;;;;;7.52;41.27;97464.53;6281806;28;20238;-41
2023/03/15 14:45:29;;;;;;;3.13;1.50;;;;;;;7.39;41.03;97482.25;6280685;28;20248;-36
2023/03/15 14:48:31;;;;;;;2.80;1.10;;;;;;;7.35;40.89;97473.13;6269569;28;20231;-36
2023/03/15 14:51:33;;;;;;;3.53;1.40;;;;;;;7.68;41.09;97467.31;6280377;28;20953;-36
2023/03/15 14:54:36;;;;;;;2.57;1.53;;;;;;;7.76;40.64;97474.13;6285026;28;20706;-36
2023/03/15 14:57:38;;;;;;;1.90;1.27;;;;;;;8.06;40.25;97481.19;6267622;28;20744;-37